createdAt,value
2019-04-23T00:00:04.916Z,101346.47
2019-04-23T00:02:24.789Z,101330.72
2019-04-23T00:04:49.747Z,101337.34
2019-04-23T00:07:39.668Z,101334.63
2019-04-23T00:09:57.438Z,101327.97
2019-04-23T00:12:38.956Z,101331.32
2019-04-23T00:15:04.394Z,101328.95
2019-04-23T00:17:40.270Z,101326.66
2019-04-23T00:20:03.832Z,101319.38
2019-04-23T00:23:08.805Z,101314.45
2019-04-23T00:25:56.180Z,101313.09
2019-04-23T00:30:56.752Z,101328.72
2019-04-23T00:33:25.319Z,101320.60
2019-04-23T00:36:10.360Z,101322.02
2019-04-23T00:40:59.520Z,101314.00
2019-04-23T00:43:27.094Z,101315.13
2019-04-23T00:45:55.026Z,101304.95
2019-04-23T00:53:30.289Z,101309.67
2019-04-23T00:56:20.626Z,101317.41
2019-04-23T00:58:38.062Z,101318.39
2019-04-23T01:01:02.487Z,101314.20
2019-04-23T01:03:37.529Z,101307.80
2019-04-23T01:06:17.721Z,101310.57
2019-04-23T01:08:39.094Z,101297.78
2019-04-23T01:11:16.740Z,101303.80
2019-04-23T01:13:49.598Z,101309.49
2019-04-23T01:16:19.589Z,101298.39
2019-04-23T01:21:11.722Z,101305.53
2019-04-23T01:23:58.796Z,101302.45
2019-04-23T01:26:50.350Z,101307.63
2019-04-23T01:29:21.356Z,101299.75
2019-04-23T01:31:52.042Z,101298.77
2019-04-23T01:34:26.029Z,101297.13
2019-04-23T01:36:52.297Z,101300.77
2019-04-23T01:39:25.794Z,101300.77
2019-04-23T01:41:55.597Z,101297.92
2019-04-23T01:44:31.364Z,101300.02
2019-04-23T01:46:59.454Z,101295.21
2019-04-23T01:49:37.011Z,101293.12
2019-04-23T01:52:01.769Z,101286.50
2019-04-23T01:54:30.534Z,101282.44
2019-04-23T01:57:04.026Z,101294.61
2019-04-23T01:59:31.672Z,101286.36
2019-04-23T02:02:22.135Z,101275.53
2019-04-23T02:04:41.113Z,101276.27
2019-04-23T02:07:06.382Z,101280.33
2019-04-23T02:12:04.475Z,101271.47
2019-04-23T02:14:36.483Z,101267.42
2019-04-23T02:17:10.531Z,101274.69
2019-04-23T02:22:25.228Z,101263.50
2019-04-23T02:24:55.899Z,101260.23
2019-04-23T02:27:22.480Z,101262.19
2019-04-23T02:32:28.935Z,101249.36
2019-04-23T02:35:16.932Z,101249.22
2019-04-23T02:37:51.553Z,101245.94
2019-04-23T02:40:07.484Z,101246.79
2019-04-23T02:45:04.729Z,101248.38
2019-04-23T02:47:34.976Z,101244.87
2019-04-23T02:52:37.088Z,101245.72
2019-04-23T02:55:13.310Z,101251.77
2019-04-23T02:57:35.584Z,101246.83
2019-04-23T03:02:45.203Z,101250.05
2019-04-23T03:07:45.412Z,101245.48
2019-04-23T03:10:15.987Z,101247.57
2019-04-23T03:15:39.753Z,101252.24
2019-04-23T03:18:21.025Z,101238.02
2019-04-23T03:21:00.422Z,101236.02
2019-04-23T03:26:08.656Z,101233.08
2019-04-23T03:36:10.889Z,101229.16
2019-04-23T03:43:39.143Z,101226.26
2019-04-23T03:46:15.679Z,101213.30
2019-04-23T03:48:41.629Z,101220.34
2019-04-23T03:51:03.154Z,101218.00
2019-04-23T03:53:52.797Z,101216.66
2019-04-23T03:56:24.159Z,101217.50
2019-04-23T04:01:11.863Z,101215.55
2019-04-23T04:06:40.706Z,101218.34
2019-04-23T04:08:56.256Z,101220.84
2019-04-23T04:11:18.234Z,101216.85
2019-04-23T04:19:06.529Z,101224.26
2019-04-23T04:21:27.615Z,101222.26
2019-04-23T04:23:52.819Z,101225.47
2019-04-23T04:26:22.854Z,101224.21
2019-04-23T04:28:51.046Z,101219.13
2019-04-23T04:31:26.188Z,101218.47
2019-04-23T04:36:38.671Z,101218.78
2019-04-23T04:38:54.483Z,101218.70
2019-04-23T04:44:17.577Z,101217.22
2019-04-23T04:49:05.535Z,101215.51
2019-04-23T04:51:37.919Z,101221.34
2019-04-23T04:56:39.616Z,101214.79
2019-04-23T05:01:28.471Z,101214.02
2019-04-23T05:03:59.947Z,101222.51
2019-04-23T05:06:46.463Z,101219.85
2019-04-23T05:14:25.218Z,101214.92
2019-04-23T05:16:35.677Z,101211.02
2019-04-23T05:19:27.032Z,101208.92
2019-04-23T05:24:14.853Z,101201.08
2019-04-23T05:26:33.459Z,101211.34
2019-04-23T05:31:42.143Z,101204.45
2019-04-23T05:36:51.937Z,101204.66
2019-04-23T05:39:26.865Z,101199.00
2019-04-23T05:41:52.557Z,101200.50
2019-04-23T05:44:35.034Z,101199.30
2019-04-23T05:47:11.512Z,101189.86
2019-04-23T05:49:22.750Z,101203.92
2019-04-23T05:54:29.936Z,101186.47
2019-04-23T05:56:51.709Z,101196.69
2019-04-23T05:59:26.242Z,101199.38
2019-04-23T06:07:15.164Z,101196.91
2019-04-23T06:09:26.620Z,101200.56
2019-04-23T06:14:32.776Z,101194.39
2019-04-23T06:17:03.260Z,101188.59
2019-04-23T06:22:06.034Z,101191.08
2019-04-23T06:27:08.491Z,101194.98
2019-04-23T06:32:02.236Z,101199.09
2019-04-23T06:37:06.751Z,101170.09
2019-04-23T06:42:08.045Z,101187.78
2019-04-23T06:44:51.707Z,101191.07
2019-04-23T06:47:20.088Z,101188.02
2019-04-23T06:55:08.589Z,101182.17
2019-04-23T06:57:23.835Z,101202.60
2019-04-23T06:59:54.665Z,101167.12
2019-04-23T07:02:27.199Z,101167.62
2019-04-23T07:05:04.111Z,101174.88
2019-04-23T07:07:42.621Z,101184.11
2019-04-23T07:09:58.342Z,101181.77
2019-04-23T07:12:33.292Z,101184.11
2019-04-23T07:15:13.300Z,101185.97
2019-04-23T07:17:30.882Z,101176.16
2019-04-23T07:20:03.784Z,101174.95
2019-04-23T07:22:28.492Z,101176.74
2019-04-23T07:25:17.526Z,101170.66
2019-04-23T07:30:11.637Z,101149.64
2019-04-23T07:32:38.974Z,101142.02
2019-04-23T07:35:15.847Z,101132.97
2019-04-23T07:37:46.119Z,101128.20
2019-04-23T07:43:32.315Z,101131.19
2019-04-23T07:48:28.878Z,101151.47
2019-04-23T07:51:06.404Z,101134.70
2019-04-23T07:53:44.315Z,101133.59
2019-04-23T07:58:33.200Z,101146.63
2019-04-23T08:01:09.663Z,101104.73
2019-04-23T08:03:45.167Z,101101.42
2019-04-23T08:06:15.259Z,101099.95
2019-04-23T08:08:41.753Z,101087.42
2019-04-23T08:16:28.225Z,101110.09
2019-04-23T08:21:52.510Z,101155.41
2019-04-23T08:24:45.361Z,101163.41
2019-04-23T08:27:28.208Z,101139.05
2019-04-23T08:30:00.287Z,101068.28
2019-04-23T08:32:29.254Z,101075.44
2019-04-23T08:37:49.397Z,101076.52
2019-04-23T08:40:06.493Z,101065.07
2019-04-23T08:42:49.641Z,101035.50
2019-04-23T08:50:57.862Z,101066.80
2019-04-23T08:55:49.462Z,101084.03
2019-04-23T08:58:19.134Z,101074.67
2019-04-23T09:03:24.815Z,101068.88
2019-04-23T09:08:27.829Z,101057.72
2019-04-23T09:13:52.478Z,101080.78
2019-04-23T09:15:58.332Z,101038.70
2019-04-23T09:20:57.211Z,101053.64
2019-04-23T09:23:36.376Z,101042.12
2019-04-23T09:26:00.849Z,101035.98
2019-04-23T09:28:43.382Z,101029.70
2019-04-23T09:31:18.874Z,101050.31
2019-04-23T09:33:54.808Z,101029.15
2019-04-23T09:36:41.941Z,101031.09
2019-04-23T09:41:54.689Z,101024.55
2019-04-23T09:44:56.258Z,101022.18
2019-04-23T09:47:45.899Z,101024.66
2019-04-23T09:50:11.065Z,101027.33
2019-04-23T09:52:46.124Z,101023.27
2019-04-23T09:55:24.021Z,101008.45
2019-04-23T09:57:46.489Z,101030.37
2019-04-23T10:00:18.770Z,101015.86
2019-04-23T10:02:34.318Z,101019.53
2019-04-23T10:05:01.397Z,101017.25
2019-04-23T10:07:30.041Z,101002.96
2019-04-23T10:09:49.699Z,101012.92
2019-04-23T10:12:20.079Z,101006.63
2019-04-23T10:14:59.012Z,100981.78
2019-04-23T10:17:20.198Z,100999.66
2019-04-23T10:19:50.849Z,100988.12
2019-04-23T10:22:19.989Z,100994.31
2019-04-23T10:24:49.021Z,100987.67
2019-04-23T10:27:18.842Z,100999.28
2019-04-23T10:29:49.847Z,100980.31
2019-04-23T10:32:19.856Z,100980.92
2019-04-23T10:35:00.772Z,100971.32
2019-04-23T10:37:31.919Z,100969.45
2019-04-23T10:39:56.603Z,100977.28
2019-04-23T10:42:21.899Z,100965.07
2019-04-23T10:45:36.995Z,100958.51
2019-04-23T10:48:38.582Z,100957.72
2019-04-23T10:53:46.785Z,100935.07
2019-04-23T10:56:30.980Z,100992.39
2019-04-23T10:58:45.904Z,100938.93
2019-04-23T11:01:22.919Z,100942.76
2019-04-23T11:04:12.478Z,100925.88
2019-04-23T11:09:04.986Z,100920.42
2019-04-23T11:11:27.514Z,100964.14
2019-04-23T11:14:07.090Z,100936.89
2019-04-23T11:19:10.730Z,100942.55
2019-04-23T11:21:34.217Z,100935.33
2019-04-23T11:24:11.843Z,100928.90
2019-04-23T11:26:38.815Z,100944.67
2019-04-23T11:29:15.063Z,100937.89
2019-04-23T11:34:26.636Z,100937.45
2019-04-23T11:38:01.635Z,100926.74
2019-04-23T11:39:05.573Z,100916.70
2019-04-23T11:41:51.258Z,100939.33
2019-04-23T11:49:26.330Z,100973.03
2019-04-23T11:51:54.706Z,100927.50
2019-04-23T11:54:17.728Z,100917.69
2019-04-23T11:59:29.194Z,100910.29
2019-04-23T12:02:07.320Z,100923.07
2019-04-23T12:05:00.895Z,100911.52
2019-04-23T12:07:29.714Z,100896.38
2019-04-23T12:10:29.108Z,100908.03
2019-04-23T12:12:47.801Z,100906.05
2019-04-23T12:18:05.499Z,100915.08
2019-04-23T12:20:26.733Z,100889.23
2019-04-23T12:23:08.946Z,100898.31
2019-04-23T12:27:51.217Z,100880.92
2019-04-23T12:30:35.907Z,100885.95
2019-04-23T12:34:36.072Z,100865.62
2019-04-23T12:36:52.122Z,100868.45
2019-04-23T12:39:41.999Z,100878.69
2019-04-23T12:42:03.445Z,100883.74
2019-04-23T12:44:38.998Z,100872.41
2019-04-23T12:47:17.123Z,100829.31
2019-04-23T12:49:52.842Z,100865.47
2019-04-23T12:52:11.411Z,100848.08
2019-04-23T12:54:52.081Z,100854.14
2019-04-23T12:57:14.848Z,100858.34
2019-04-23T12:59:44.714Z,100833.51
2019-04-23T13:02:16.096Z,100814.13
2019-04-23T13:07:17.236Z,100818.67
2019-04-23T13:09:54.071Z,100821.39
2019-04-23T13:12:32.639Z,100826.59
2019-04-23T13:14:55.530Z,100815.40
2019-04-23T13:17:32.972Z,100829.12
2019-04-23T13:22:23.933Z,100810.68
2019-04-23T13:25:23.846Z,100824.02
2019-04-23T13:27:57.181Z,100799.25
2019-04-23T13:30:27.933Z,100811.59
2019-04-23T13:32:55.567Z,100807.02
2019-04-23T13:35:38.346Z,100802.86
2019-04-23T13:43:13.956Z,100780.95
2019-04-23T13:48:03.198Z,100766.55
2019-04-23T13:50:37.492Z,100753.77
2019-04-23T13:55:24.745Z,100781.41
2019-04-23T14:05:51.212Z,100758.69
2019-04-23T14:08:22.916Z,100766.02
2019-04-23T14:10:44.850Z,100768.11
2019-04-23T14:20:53.243Z,100730.25
2019-04-23T14:26:13.500Z,100703.08
2019-04-23T14:31:00.688Z,100721.34
2019-04-23T14:33:38.313Z,100720.41
2019-04-23T14:36:01.148Z,100710.64
2019-04-23T14:41:09.617Z,100709.06
2019-04-23T14:48:56.797Z,100692.86
2019-04-23T14:54:03.011Z,100693.41
2019-04-23T14:56:17.024Z,100683.14
2019-04-23T14:58:55.559Z,100686.58
2019-04-23T15:03:47.068Z,100667.14
2019-04-23T15:06:36.377Z,100662.57
2019-04-23T15:11:38.324Z,100649.91
2019-04-23T15:13:49.394Z,100676.98
2019-04-23T15:16:26.656Z,100668.45
2019-04-23T15:19:23.840Z,100646.45
2019-04-23T15:22:04.897Z,100665.66
2019-04-23T15:24:25.238Z,100652.81
2019-04-23T15:28:58.645Z,100644.69
2019-04-23T15:31:52.448Z,100672.33
2019-04-23T15:37:14.017Z,100657.38
2019-04-23T15:47:04.568Z,100635.61
2019-04-23T15:49:30.462Z,100628.25
2019-04-23T15:54:37.165Z,100610.34
2019-04-23T15:57:05.576Z,100617.56
2019-04-23T16:01:42.650Z,100619.91
2019-04-23T16:04:08.257Z,100606.55
2019-04-23T16:06:38.814Z,100605.69
2019-04-23T16:09:26.165Z,100622.84
2019-04-23T16:11:59.146Z,100607.33
2019-04-23T16:14:48.963Z,100599.00
2019-04-23T16:17:24.040Z,100593.33
2019-04-23T16:20:06.166Z,100615.93
2019-04-23T16:22:25.054Z,100605.94
2019-04-23T16:25:00.994Z,100581.02
2019-04-23T16:27:19.623Z,100606.09
2019-04-23T16:30:09.750Z,100584.12
2019-04-23T16:33:06.903Z,100606.98
2019-04-23T16:35:34.650Z,100603.61
2019-04-23T16:38:18.102Z,100589.63
2019-04-23T16:40:42.616Z,100617.64
2019-04-23T16:43:08.896Z,100588.46
2019-04-23T16:45:31.348Z,100619.77
2019-04-23T16:48:17.160Z,100605.34
2019-04-23T16:50:58.091Z,100602.64
2019-04-23T16:53:16.402Z,100595.94
2019-04-23T16:55:50.305Z,100591.64
2019-04-23T16:58:21.872Z,100585.23
2019-04-23T17:00:51.519Z,100577.41
2019-04-23T17:03:19.390Z,100581.18
2019-04-23T17:08:40.467Z,100573.10
2019-04-23T17:13:13.706Z,100568.44
2019-04-23T17:15:53.507Z,100579.14
2019-04-23T17:18:17.255Z,100583.95
2019-04-23T17:23:31.224Z,100565.09
2019-04-23T17:25:51.865Z,100566.11
2019-04-23T17:28:23.310Z,100562.63
2019-04-23T17:31:15.444Z,100569.08
2019-04-23T17:33:39.498Z,100569.08
2019-04-23T17:36:18.521Z,100559.21
2019-04-23T17:41:31.298Z,100571.16
2019-04-23T17:44:10.704Z,100557.23
2019-04-23T17:46:27.318Z,100548.77
2019-04-23T17:49:04.342Z,100554.73
2019-04-23T17:51:26.340Z,100548.30
2019-04-23T17:59:04.126Z,100550.71
2019-04-23T18:01:35.784Z,100551.03
2019-04-23T18:04:15.230Z,100555.80
2019-04-23T18:06:41.303Z,100558.20
2019-04-23T18:09:14.302Z,100536.13
2019-04-23T18:11:35.666Z,100553.28
2019-04-23T18:14:07.146Z,100547.64
2019-04-23T18:16:49.258Z,100541.02
2019-04-23T18:19:12.362Z,100540.35
2019-04-23T18:22:09.407Z,100537.80
2019-04-23T18:25:00.821Z,100545.45
2019-04-23T18:30:15.614Z,100548.48
2019-04-23T18:35:29.954Z,100550.67
2019-04-23T18:38:04.900Z,100547.09
2019-04-23T18:40:38.819Z,100543.00
2019-04-23T18:45:41.582Z,100545.67
2019-04-23T18:48:40.634Z,100530.23
2019-04-23T18:53:33.778Z,100547.16
2019-04-23T18:58:34.499Z,100535.78
2019-04-23T19:01:05.260Z,100544.22
2019-04-23T19:03:48.106Z,100539.48
2019-04-23T19:06:39.728Z,100541.35
2019-04-23T19:10:19.019Z,100531.49
2019-04-23T19:15:09.431Z,100534.86
2019-04-23T19:17:48.606Z,100547.25
2019-04-23T19:20:01.162Z,100534.72
2019-04-23T19:22:44.486Z,100534.72
2019-04-23T19:25:11.001Z,100539.27
2019-04-23T19:30:14.009Z,100535.58
2019-04-23T19:32:47.917Z,100535.93
2019-04-23T19:35:31.523Z,100541.70
2019-04-23T19:37:49.556Z,100537.12
2019-04-23T19:40:10.022Z,100543.25
2019-04-23T19:42:52.268Z,100511.72
2019-04-23T19:45:17.200Z,100534.11
2019-04-23T19:47:55.946Z,100533.94
2019-04-23T19:50:26.249Z,100529.40
2019-04-23T19:53:03.544Z,100530.05
2019-04-23T19:55:17.317Z,100532.27
2019-04-23T19:57:50.477Z,100525.34
2019-04-23T20:00:17.464Z,100528.56
2019-04-23T20:05:23.511Z,100524.31
2019-04-23T20:08:02.237Z,100535.34
2019-04-23T20:10:24.195Z,100521.27
2019-04-23T20:12:44.856Z,100524.51
2019-04-23T20:15:35.938Z,100519.58
2019-04-23T20:20:25.538Z,100517.89
2019-04-23T20:22:55.644Z,100517.23
2019-04-23T20:25:52.456Z,100518.77
2019-04-23T20:36:21.692Z,100512.00
2019-04-23T20:41:36.153Z,100514.56
2019-04-23T20:43:55.571Z,100516.24
2019-04-23T20:46:29.003Z,100512.36
2019-04-23T20:48:56.932Z,100514.20
2019-04-23T20:51:35.010Z,100516.75
2019-04-23T20:59:00.193Z,100514.08
2019-04-23T21:01:55.657Z,100506.42
2019-04-23T21:04:35.374Z,100512.55
2019-04-23T21:07:03.118Z,100519.83
2019-04-23T21:09:37.988Z,100512.86
2019-04-23T21:12:04.194Z,100515.23
2019-04-23T21:14:48.505Z,100507.95
2019-04-23T21:16:58.373Z,100504.36
2019-04-23T21:19:39.500Z,100515.22
2019-04-23T21:22:09.935Z,100510.14
2019-04-23T21:24:43.368Z,100508.25
2019-04-23T21:27:41.031Z,100506.89
2019-04-23T21:32:52.575Z,100497.05
2019-04-23T21:35:07.650Z,100499.09
2019-04-23T21:40:59.172Z,100492.66
2019-04-23T21:43:47.377Z,100492.49
2019-04-23T21:46:28.209Z,100484.20
2019-04-23T21:48:53.197Z,100485.73
2019-04-23T21:51:09.596Z,100490.09
2019-04-23T21:53:42.173Z,100484.00
2019-04-23T21:56:10.926Z,100486.89
2019-04-23T21:58:57.383Z,100476.86
2019-04-23T22:01:24.456Z,100480.27
2019-04-23T22:04:06.791Z,100469.41
2019-04-23T22:06:22.472Z,100478.77
2019-04-23T22:08:56.334Z,100470.63
2019-04-23T22:11:43.945Z,100471.80
2019-04-23T22:16:27.781Z,100465.36
2019-04-23T22:19:07.222Z,100454.51
2019-04-23T22:26:28.464Z,100449.39
2019-04-23T22:29:06.624Z,100439.06
2019-04-23T22:31:37.773Z,100442.44
2019-04-23T22:36:29.280Z,100442.30
2019-04-23T22:41:38.075Z,100439.58
2019-04-23T22:44:05.304Z,100440.23
2019-04-23T22:49:29.234Z,100433.14
2019-04-23T22:51:55.326Z,100425.48
2019-04-23T22:54:13.900Z,100427.71
2019-04-23T22:56:51.363Z,100437.04
2019-04-23T22:59:33.676Z,100428.72
2019-04-23T23:01:54.748Z,100420.41
2019-04-23T23:04:40.804Z,100415.81
2019-04-23T23:11:54.258Z,100414.80
2019-04-23T23:14:24.332Z,100419.56
2019-04-23T23:19:30.188Z,100411.94
2019-04-23T23:29:28.228Z,100393.95
2019-04-23T23:32:00.753Z,100395.83
2019-04-23T23:34:36.883Z,100397.53
2019-04-23T23:39:37.156Z,100391.27
2019-04-23T23:42:07.413Z,100394.98
2019-04-23T23:47:10.568Z,100391.09
2019-04-23T23:49:36.163Z,100388.03
2019-04-23T23:52:27.934Z,100385.67
2019-04-23T23:54:39.341Z,100388.70
2019-04-23T23:57:12.178Z,100392.11
